createdAt,value
2023-05-01T00:01:42.432Z,0.00
2023-05-01T00:02:45.721Z,0.00
2023-05-01T00:03:49.112Z,0.00
2023-05-01T00:04:52.603Z,0.00
2023-05-01T00:05:56.004Z,0.43
2023-05-01T00:06:59.260Z,0.86
2023-05-01T00:08:02.370Z,0.43
2023-05-01T00:09:05.582Z,1.00
2023-05-01T00:10:08.945Z,1.00
2023-05-01T00:11:12.234Z,1.14
2023-05-01T00:12:15.616Z,0.00
2023-05-01T00:13:18.898Z,0.00
2023-05-01T00:14:22.205Z,0.00
2023-05-01T00:15:25.669Z,0.43
2023-05-01T00:16:29.009Z,0.14
2023-05-01T00:17:32.466Z,0.43
2023-05-01T00:18:35.727Z,0.00
2023-05-01T00:19:39.007Z,0.00
2023-05-01T00:20:42.405Z,0.86
2023-05-01T00:21:45.679Z,1.14
2023-05-01T00:22:49.280Z,0.86
2023-05-01T00:23:52.554Z,2.00
2023-05-01T00:24:55.823Z,0.71
2023-05-01T00:25:59.042Z,0.00
2023-05-01T00:27:02.205Z,0.43
2023-05-01T00:28:05.500Z,2.14
2023-05-01T00:29:08.568Z,1.57
2023-05-01T00:30:11.747Z,1.57
2023-05-01T00:31:14.970Z,1.67
2023-05-01T00:32:18.139Z,1.17
2023-05-01T00:33:21.203Z,0.17
2023-05-01T00:34:24.376Z,0.17
2023-05-01T00:35:27.456Z,0.57
2023-05-01T00:36:30.464Z,0.00
2023-05-01T00:37:33.410Z,0.00
2023-05-01T00:38:36.463Z,0.67
2023-05-01T00:39:39.474Z,0.33
2023-05-01T00:40:42.551Z,0.57
2023-05-01T00:41:45.639Z,0.43
2023-05-01T00:42:48.708Z,0.71
2023-05-01T00:43:51.789Z,0.67
2023-05-01T00:44:54.982Z,1.00
2023-05-01T00:45:58.116Z,1.00
2023-05-01T00:47:01.232Z,1.00
2023-05-01T00:48:04.541Z,1.43
2023-05-01T00:49:07.797Z,1.14
2023-05-01T00:50:10.874Z,0.14
2023-05-01T00:51:13.961Z,0.00
2023-05-01T00:52:17.149Z,1.00
2023-05-01T00:53:20.114Z,1.00
2023-05-01T00:54:23.400Z,1.33
2023-05-01T00:55:26.380Z,1.67
2023-05-01T00:56:29.356Z,0.67
2023-05-01T00:57:32.570Z,0.00
2023-05-01T00:58:35.655Z,0.29
2023-05-01T00:59:39.112Z,0.29
2023-05-01T01:01:44.843Z,0.67
2023-05-01T01:02:47.960Z,0.43
2023-05-01T01:03:51.010Z,1.00
2023-05-01T01:04:54.267Z,0.43
2023-05-01T01:05:57.520Z,1.00
2023-05-01T01:08:03.019Z,1.67
2023-05-01T01:14:19.038Z,1.67
2023-05-01T01:15:23.938Z,2.14
2023-05-01T01:17:29.557Z,1.33
2023-05-01T01:18:32.796Z,1.43
2023-05-01T01:19:35.867Z,1.57
2023-05-01T01:20:39.050Z,1.14
2023-05-01T01:21:42.334Z,1.71
2023-05-01T01:22:45.392Z,1.43
2023-05-01T01:23:48.388Z,1.33
2023-05-01T01:24:51.467Z,0.17
2023-05-01T01:25:54.549Z,1.43
2023-05-01T01:26:57.632Z,3.43
2023-05-01T01:28:00.649Z,2.57
2023-05-01T01:29:03.653Z,3.00
2023-05-01T01:30:06.684Z,1.33
2023-05-01T01:31:09.782Z,0.86
2023-05-01T01:32:12.924Z,0.71
2023-05-01T01:33:15.909Z,1.29
2023-05-01T01:34:18.958Z,1.67
2023-05-01T01:35:21.962Z,1.33
2023-05-01T01:36:25.153Z,1.57
2023-05-01T01:37:28.115Z,1.86
2023-05-01T01:38:31.162Z,1.29
2023-05-01T01:39:34.145Z,2.00
2023-05-01T01:40:37.151Z,1.33
2023-05-01T01:41:40.355Z,1.86
2023-05-01T01:42:43.522Z,3.00
2023-05-01T01:43:47.002Z,2.14
2023-05-01T01:44:50.592Z,1.00
2023-05-01T01:45:54.032Z,0.13
2023-05-01T01:46:57.266Z,0.00
2023-05-01T01:48:00.601Z,0.43
2023-05-01T01:49:03.941Z,0.86
2023-05-01T01:50:07.126Z,1.29
2023-05-01T01:51:10.508Z,0.43
2023-05-01T01:52:13.890Z,0.57
2023-05-01T01:53:17.301Z,0.29
2023-05-01T01:54:20.582Z,0.17
2023-05-01T01:55:23.846Z,1.00
2023-05-01T01:56:27.235Z,0.57
2023-05-01T01:57:30.725Z,0.00
2023-05-01T01:58:33.974Z,0.43
2023-05-01T01:59:37.293Z,0.14
2023-05-01T02:00:40.582Z,0.57
2023-05-01T02:01:43.885Z,0.86
2023-05-01T02:02:47.218Z,1.14
2023-05-01T02:03:50.481Z,1.00
2023-05-01T02:04:53.816Z,0.57
2023-05-01T02:05:57.112Z,0.43
2023-05-01T02:07:00.384Z,0.71
2023-05-01T02:08:03.777Z,1.00
2023-05-01T02:09:06.953Z,1.43
2023-05-01T02:10:10.343Z,0.43
2023-05-01T02:11:13.529Z,0.57
2023-05-01T02:12:16.813Z,1.00
2023-05-01T02:13:20.293Z,1.57
2023-05-01T02:14:23.688Z,0.43
2023-05-01T02:15:26.971Z,1.29
2023-05-01T02:16:30.452Z,2.00
2023-05-01T02:17:33.858Z,1.57
2023-05-01T02:18:37.129Z,1.00
2023-05-01T02:19:40.409Z,1.00
2023-05-01T02:20:43.676Z,1.43
2023-05-01T02:21:46.890Z,2.00
2023-05-01T02:22:50.146Z,1.57
2023-05-01T02:23:53.343Z,0.57
2023-05-01T02:24:56.440Z,0.43
2023-05-01T02:25:59.908Z,0.67
2023-05-01T02:27:03.215Z,0.00
2023-05-01T02:28:06.487Z,0.00
2023-05-01T02:29:09.765Z,0.00
2023-05-01T02:30:13.152Z,0.14
2023-05-01T02:31:16.430Z,0.29
2023-05-01T02:32:19.632Z,0.00
2023-05-01T02:33:22.695Z,0.29
2023-05-01T02:34:25.781Z,0.00
2023-05-01T02:35:28.973Z,0.00
2023-05-01T02:36:32.465Z,0.00
2023-05-01T02:37:35.832Z,0.57
2023-05-01T02:38:39.150Z,0.43
2023-05-01T02:39:42.513Z,1.00
2023-05-01T02:40:46.009Z,0.00
2023-05-01T02:41:49.300Z,0.00
2023-05-01T02:42:52.775Z,0.00
2023-05-01T02:43:55.949Z,0.00
2023-05-01T02:44:59.238Z,0.00
2023-05-01T02:46:02.561Z,0.00
2023-05-01T02:47:05.868Z,0.00
2023-05-01T02:48:09.082Z,0.00
2023-05-01T02:49:12.371Z,0.00
2023-05-01T02:50:15.659Z,0.00
2023-05-01T02:51:18.837Z,0.00
2023-05-01T02:52:22.529Z,0.00
2023-05-01T02:53:25.610Z,0.00
2023-05-01T02:54:28.798Z,0.00
2023-05-01T02:55:31.981Z,0.00
2023-05-01T02:56:35.062Z,0.00
2023-05-01T02:57:38.235Z,0.00
2023-05-01T02:58:41.284Z,0.33
2023-05-01T02:59:44.296Z,0.67
2023-05-01T03:00:47.522Z,0.00
2023-05-01T03:01:50.545Z,0.00
2023-05-01T03:02:53.553Z,0.00
2023-05-01T03:03:56.596Z,0.00
2023-05-01T03:04:59.688Z,0.00
2023-05-01T03:06:02.849Z,0.43
2023-05-01T03:07:05.858Z,0.00
2023-05-01T03:08:08.829Z,0.00
2023-05-01T03:09:11.908Z,0.00
2023-05-01T03:10:15.002Z,0.00
2023-05-01T03:11:18.073Z,0.00
2023-05-01T03:12:21.143Z,0.00
2023-05-01T03:13:24.327Z,0.00
2023-05-01T03:14:27.404Z,0.00
2023-05-01T03:15:30.497Z,0.00
2023-05-01T03:16:33.588Z,0.00
2023-05-01T03:17:36.697Z,0.00
2023-05-01T03:18:40.025Z,0.00
2023-05-01T03:19:43.318Z,0.00
2023-05-01T03:20:46.696Z,0.00
2023-05-01T03:21:50.087Z,0.00
2023-05-01T03:22:53.236Z,0.14
2023-05-01T03:23:56.344Z,0.67
2023-05-01T03:24:59.632Z,0.33
2023-05-01T03:26:02.923Z,0.67
2023-05-01T03:27:06.206Z,0.33
2023-05-01T03:28:09.494Z,0.57
2023-05-01T03:29:12.794Z,0.00
2023-05-01T03:30:16.056Z,0.00
2023-05-01T03:31:19.342Z,0.00
2023-05-01T03:32:22.859Z,0.00
2023-05-01T03:33:26.281Z,0.00
2023-05-01T03:34:29.609Z,0.00
2023-05-01T03:35:33.158Z,0.43
2023-05-01T03:36:36.379Z,0.00
2023-05-01T03:37:39.654Z,0.00
2023-05-01T03:38:42.838Z,0.00
2023-05-01T03:39:46.018Z,0.00
2023-05-01T03:40:49.096Z,0.43
2023-05-01T03:41:52.410Z,0.00
2023-05-01T03:42:56.069Z,0.00
2023-05-01T03:43:59.263Z,0.00
2023-05-01T03:45:02.332Z,0.33
2023-05-01T03:46:05.669Z,0.67
2023-05-01T03:47:08.699Z,0.00
2023-05-01T03:48:11.948Z,0.00
2023-05-01T03:49:14.965Z,0.00
2023-05-01T03:50:18.139Z,0.00
2023-05-01T03:51:21.224Z,0.00
2023-05-01T03:52:24.302Z,0.00
2023-05-01T03:53:27.389Z,0.00
2023-05-01T03:54:30.464Z,0.00
2023-05-01T03:55:33.552Z,0.33
2023-05-01T03:56:36.635Z,1.00
2023-05-01T03:57:39.645Z,1.00
2023-05-01T03:58:42.681Z,0.57
2023-05-01T03:59:45.782Z,0.00
2023-05-01T04:00:48.941Z,0.00
2023-05-01T04:01:51.984Z,0.00
2023-05-01T04:02:55.189Z,0.00
2023-05-01T04:03:58.224Z,0.00
2023-05-01T04:05:01.413Z,0.00
2023-05-01T04:06:04.624Z,0.00
2023-05-01T04:07:07.632Z,0.00
2023-05-01T04:08:10.705Z,0.00
2023-05-01T04:09:13.903Z,0.00
2023-05-01T04:10:16.863Z,0.00
2023-05-01T04:11:20.161Z,0.00
2023-05-01T04:12:23.241Z,0.00
2023-05-01T04:13:26.203Z,0.00
2023-05-01T04:14:29.255Z,0.00
2023-05-01T04:15:32.258Z,0.00
2023-05-01T04:16:38.759Z,0.00
2023-05-01T04:17:41.734Z,0.00
2023-05-01T04:18:44.887Z,0.00
2023-05-01T04:19:51.392Z,0.00
2023-05-01T04:20:54.729Z,0.00
2023-05-01T04:21:58.006Z,0.00
2023-05-01T04:23:00.992Z,0.00
2023-05-01T04:24:04.122Z,0.00
2023-05-01T04:25:07.260Z,0.00
2023-05-01T04:26:10.345Z,0.00
2023-05-01T04:27:13.507Z,0.00
2023-05-01T04:28:16.587Z,0.00
2023-05-01T04:29:19.678Z,0.33
2023-05-01T04:30:22.741Z,0.57
2023-05-01T04:31:25.870Z,0.00
2023-05-01T04:32:28.968Z,0.00
2023-05-01T04:33:31.977Z,0.00
2023-05-01T04:34:35.159Z,0.00
2023-05-01T04:35:38.351Z,0.33
2023-05-01T04:36:41.431Z,1.00
2023-05-01T04:37:44.610Z,0.67
2023-05-01T04:38:47.789Z,0.00
2023-05-01T04:39:50.790Z,0.29
2023-05-01T04:40:53.764Z,0.57
2023-05-01T04:41:56.779Z,0.00
2023-05-01T04:42:59.956Z,0.00
2023-05-01T04:44:03.086Z,0.57
2023-05-01T04:45:06.180Z,0.71
2023-05-01T04:46:09.475Z,0.57
2023-05-01T04:47:12.765Z,0.00
2023-05-01T04:48:16.081Z,0.00
2023-05-01T04:49:19.401Z,0.00
2023-05-01T04:50:22.587Z,0.00
2023-05-01T04:51:25.986Z,0.00
2023-05-01T04:52:29.252Z,0.00
2023-05-01T04:53:32.638Z,0.00
2023-05-01T04:54:35.918Z,0.43
2023-05-01T04:55:39.116Z,1.00
2023-05-01T04:56:42.500Z,0.29
2023-05-01T04:57:45.668Z,0.00
2023-05-01T04:58:48.649Z,0.00
2023-05-01T04:59:51.836Z,0.00
2023-05-01T05:00:55.015Z,0.43
2023-05-01T05:01:58.280Z,0.67
2023-05-01T05:03:01.579Z,0.00
2023-05-01T05:04:05.199Z,0.00
2023-05-01T05:05:08.454Z,0.00
2023-05-01T05:06:11.867Z,0.00
2023-05-01T05:07:15.129Z,0.00
2023-05-01T05:08:18.523Z,0.00
2023-05-01T05:09:21.917Z,0.00
2023-05-01T05:10:25.034Z,0.00
2023-05-01T05:11:28.031Z,0.00
2023-05-01T05:12:31.142Z,0.00
2023-05-01T05:13:34.274Z,0.00
2023-05-01T05:14:37.402Z,0.00
2023-05-01T05:15:40.694Z,0.00
2023-05-01T05:16:44.049Z,0.00
2023-05-01T05:17:47.314Z,0.00
2023-05-01T05:18:50.658Z,0.00
2023-05-01T05:19:54.073Z,0.00
2023-05-01T05:20:57.313Z,0.00
2023-05-01T05:22:00.452Z,0.00
2023-05-01T05:23:03.786Z,0.00
2023-05-01T05:24:07.168Z,0.00
2023-05-01T05:25:10.457Z,0.00
2023-05-01T05:26:13.737Z,0.00
2023-05-01T05:27:16.994Z,0.00
2023-05-01T05:28:20.306Z,0.00
2023-05-01T05:29:23.394Z,0.00
2023-05-01T05:30:26.748Z,0.00
2023-05-01T05:31:29.802Z,0.00
2023-05-01T05:32:33.082Z,0.00
2023-05-01T05:33:36.308Z,0.00
2023-05-01T05:34:39.705Z,0.00
2023-05-01T05:35:42.982Z,0.43
2023-05-01T05:36:46.272Z,0.43
2023-05-01T05:37:49.349Z,0.00
2023-05-01T05:38:52.547Z,0.43
2023-05-01T05:39:56.149Z,0.57
2023-05-01T05:40:59.622Z,0.00
2023-05-01T05:42:02.632Z,0.00
2023-05-01T05:43:05.677Z,0.00
2023-05-01T05:44:08.749Z,0.00
2023-05-01T05:45:12.175Z,0.33
2023-05-01T05:46:15.432Z,0.67
2023-05-01T05:47:18.708Z,0.00
2023-05-01T05:48:22.058Z,0.00
2023-05-01T05:49:25.387Z,0.00
2023-05-01T05:50:28.782Z,0.71
2023-05-01T05:51:32.069Z,1.00
2023-05-01T05:52:35.302Z,0.43
2023-05-01T05:53:38.630Z,0.67
2023-05-01T05:54:41.915Z,0.33
2023-05-01T05:55:45.078Z,1.17
2023-05-01T05:56:48.404Z,1.33
2023-05-01T05:57:51.551Z,0.29
2023-05-01T05:58:54.746Z,0.67
2023-05-01T06:00:00.381Z,0.00
2023-05-01T06:01:03.359Z,0.00
2023-05-01T06:02:06.487Z,0.00
2023-05-01T06:03:09.741Z,0.00
2023-05-01T06:04:12.891Z,0.57
2023-05-01T06:05:15.927Z,0.29
2023-05-01T06:06:18.962Z,0.00
2023-05-01T06:07:22.030Z,0.00
2023-05-01T06:08:26.870Z,0.00
2023-05-01T06:09:29.940Z,0.00
2023-05-01T06:10:32.907Z,0.00
2023-05-01T06:11:36.127Z,0.00
2023-05-01T06:12:41.019Z,0.00
2023-05-01T06:13:43.262Z,0.50
2023-05-01T06:14:46.452Z,0.17
2023-05-01T06:15:49.746Z,0.00
2023-05-01T06:16:52.988Z,0.00
2023-05-01T06:17:56.193Z,0.00
2023-05-01T06:18:59.693Z,0.00
2023-05-01T06:20:03.088Z,0.00
2023-05-01T06:21:06.260Z,0.00
2023-05-01T06:22:09.644Z,0.00
2023-05-01T06:23:12.893Z,0.00
2023-05-01T06:24:16.073Z,0.00
2023-05-01T06:25:19.301Z,0.14
2023-05-01T06:26:22.340Z,0.00
2023-05-01T06:27:25.373Z,0.43
2023-05-01T06:28:28.436Z,0.57
2023-05-01T06:29:31.371Z,0.00
2023-05-01T06:30:34.381Z,0.00
2023-05-01T06:31:37.414Z,0.00
2023-05-01T06:32:40.557Z,0.00
2023-05-01T06:33:43.625Z,0.00
2023-05-01T06:34:46.569Z,0.00
2023-05-01T06:35:49.643Z,0.00
2023-05-01T06:36:52.668Z,0.00
2023-05-01T06:37:55.635Z,0.00
2023-05-01T06:38:58.726Z,0.00
2023-05-01T06:40:01.706Z,0.00
2023-05-01T06:41:04.774Z,0.00
2023-05-01T06:42:07.854Z,0.00
2023-05-01T06:43:11.030Z,0.00
2023-05-01T06:44:14.109Z,0.00
2023-05-01T06:45:17.162Z,0.00
2023-05-01T06:46:20.231Z,0.00
2023-05-01T06:47:23.438Z,0.33
2023-05-01T06:48:26.538Z,0.00
2023-05-01T06:49:29.624Z,0.43
2023-05-01T06:50:32.693Z,1.00
2023-05-01T06:51:35.891Z,0.29
2023-05-01T06:52:39.071Z,0.00
2023-05-01T06:53:42.132Z,0.00
2023-05-01T06:54:45.173Z,0.00
2023-05-01T06:55:48.294Z,0.43
2023-05-01T06:56:51.465Z,1.86
2023-05-01T06:57:54.652Z,2.43
2023-05-01T06:58:57.828Z,1.43
2023-05-01T07:00:00.916Z,1.67
2023-05-01T07:01:04.019Z,1.33
2023-05-01T07:02:07.235Z,1.86
2023-05-01T07:03:10.484Z,0.57
2023-05-01T07:04:13.444Z,0.00
2023-05-01T07:05:16.548Z,0.00
2023-05-01T07:06:19.647Z,0.00
2023-05-01T07:07:22.679Z,0.00
2023-05-01T07:08:25.872Z,0.00
2023-05-01T07:09:28.942Z,0.00
2023-05-01T07:10:32.031Z,0.00
2023-05-01T07:11:35.111Z,0.00
2023-05-01T07:12:38.228Z,0.00
2023-05-01T07:13:41.261Z,0.00
2023-05-01T07:14:44.242Z,0.00
2023-05-01T07:15:47.440Z,0.33
2023-05-01T07:16:50.606Z,1.00
2023-05-01T07:17:53.719Z,0.86
2023-05-01T07:18:56.971Z,0.57
2023-05-01T07:20:00.041Z,0.00
2023-05-01T07:21:03.161Z,0.00
2023-05-01T07:22:06.206Z,0.00
2023-05-01T07:23:09.191Z,0.43
2023-05-01T07:24:12.282Z,0.57
2023-05-01T07:25:15.234Z,0.33
2023-05-01T07:26:18.320Z,0.33
2023-05-01T07:27:21.482Z,0.57
2023-05-01T07:28:24.685Z,0.00
2023-05-01T07:29:27.731Z,0.00
2023-05-01T07:30:30.853Z,0.33
2023-05-01T07:31:33.940Z,0.00
2023-05-01T07:32:37.005Z,0.00
2023-05-01T07:33:40.285Z,0.43
2023-05-01T07:34:43.474Z,0.71
2023-05-01T07:35:46.548Z,1.00
2023-05-01T07:36:49.671Z,1.00
2023-05-01T07:37:52.818Z,1.00
2023-05-01T07:38:55.896Z,1.00
2023-05-01T07:39:59.130Z,1.00
2023-05-01T07:41:02.236Z,1.00
2023-05-01T07:42:05.390Z,0.67
2023-05-01T07:43:08.507Z,0.00
2023-05-01T07:44:11.800Z,0.00
2023-05-01T07:45:15.905Z,0.00
2023-05-01T07:46:19.338Z,0.00
2023-05-01T07:47:23.306Z,0.50
2023-05-01T07:48:26.703Z,1.00
2023-05-01T07:49:29.926Z,0.57
2023-05-01T07:50:33.252Z,0.00
2023-05-01T07:51:36.400Z,0.43
2023-05-01T07:52:39.605Z,0.57
2023-05-01T07:53:42.708Z,0.00
2023-05-01T07:54:45.975Z,0.33
2023-05-01T07:55:49.227Z,1.00
2023-05-01T07:56:52.429Z,1.00
2023-05-01T07:57:55.730Z,0.29
2023-05-01T07:58:59.006Z,0.00
2023-05-01T08:00:02.130Z,0.00
2023-05-01T08:01:05.267Z,0.00
2023-05-01T08:02:08.900Z,0.86
2023-05-01T08:03:12.409Z,1.14
2023-05-01T08:04:15.798Z,0.00
2023-05-01T08:05:18.792Z,0.33
2023-05-01T08:06:22.056Z,0.67
2023-05-01T08:07:25.363Z,0.00
2023-05-01T08:08:28.566Z,0.43
2023-05-01T08:09:31.751Z,0.57
2023-05-01T08:10:35.033Z,0.00
2023-05-01T08:11:38.421Z,0.29
2023-05-01T08:12:41.598Z,0.00
2023-05-01T08:13:44.778Z,0.00
2023-05-01T08:14:48.174Z,0.00
2023-05-01T08:15:51.503Z,0.57
2023-05-01T08:16:54.762Z,0.43
2023-05-01T08:17:58.078Z,1.00
2023-05-01T08:19:01.068Z,1.00
2023-05-01T08:20:04.482Z,0.67
2023-05-01T08:21:07.660Z,1.17
2023-05-01T08:22:10.956Z,2.00
2023-05-01T08:23:14.037Z,1.33
2023-05-01T08:24:17.399Z,0.33
2023-05-01T08:25:20.818Z,0.57
2023-05-01T08:26:24.196Z,0.00
2023-05-01T08:27:27.576Z,0.00
2023-05-01T08:28:30.660Z,0.43
2023-05-01T08:29:33.843Z,1.00
2023-05-01T08:30:36.827Z,0.43
2023-05-01T08:31:39.922Z,1.00
2023-05-01T08:32:43.226Z,1.00
2023-05-01T08:33:46.271Z,1.00
2023-05-01T08:34:49.452Z,0.67
2023-05-01T08:35:52.639Z,0.00
2023-05-01T08:36:55.933Z,0.43
2023-05-01T08:37:59.197Z,1.00
2023-05-01T08:39:02.276Z,1.00
2023-05-01T08:40:05.450Z,0.57
2023-05-01T08:41:08.654Z,0.33
2023-05-01T08:42:12.034Z,1.17
2023-05-01T08:43:15.114Z,1.43
2023-05-01T08:44:18.254Z,2.83
2023-05-01T08:45:21.287Z,2.14
2023-05-01T08:46:24.368Z,1.33
2023-05-01T08:47:27.435Z,1.67
2023-05-01T08:48:30.492Z,0.57
2023-05-01T08:49:33.472Z,0.00
2023-05-01T08:50:36.864Z,0.43
2023-05-01T08:51:39.965Z,1.00
2023-05-01T08:52:43.223Z,1.00
2023-05-01T08:53:46.306Z,1.00
2023-05-01T08:54:49.704Z,1.00
2023-05-01T08:55:52.870Z,0.86
2023-05-01T08:56:56.266Z,1.00
2023-05-01T08:57:59.547Z,1.29
2023-05-01T08:59:02.832Z,0.57
2023-05-01T09:00:06.114Z,0.43
2023-05-01T09:01:09.308Z,0.57
2023-05-01T09:02:12.612Z,0.00
2023-05-01T09:03:16.346Z,0.00
2023-05-01T09:04:19.985Z,0.00
2023-05-01T09:05:23.353Z,0.00
2023-05-01T09:06:26.560Z,0.43
2023-05-01T09:07:29.821Z,0.71
2023-05-01T09:08:33.105Z,1.00
2023-05-01T09:09:36.284Z,0.57
2023-05-01T09:10:42.810Z,0.33
2023-05-01T09:11:45.731Z,1.00
2023-05-01T09:12:48.892Z,1.00
2023-05-01T09:13:52.178Z,1.00
2023-05-01T09:14:55.648Z,1.57
2023-05-01T09:15:59.004Z,1.00
2023-05-01T09:17:02.240Z,1.00
2023-05-01T09:18:05.548Z,1.43
2023-05-01T09:19:08.689Z,1.57
2023-05-01T09:20:12.117Z,1.33
2023-05-01T09:21:15.381Z,1.57
2023-05-01T09:22:18.655Z,1.43
2023-05-01T09:23:21.862Z,1.67
2023-05-01T09:24:25.125Z,1.00
2023-05-01T09:25:28.444Z,1.00
2023-05-01T09:26:31.807Z,1.33
2023-05-01T09:27:34.990Z,2.00
2023-05-01T09:28:38.370Z,1.67
2023-05-01T09:29:41.764Z,1.00
2023-05-01T09:30:45.034Z,1.14
2023-05-01T09:31:48.359Z,1.50
2023-05-01T09:32:51.645Z,1.67
2023-05-01T09:33:54.694Z,1.00
2023-05-01T09:34:58.001Z,1.00
2023-05-01T09:36:02.806Z,1.00
2023-05-01T09:37:05.670Z,1.00
2023-05-01T09:38:08.663Z,1.00
2023-05-01T09:39:13.127Z,1.29
2023-05-01T09:40:16.136Z,1.75
2023-05-01T09:41:19.008Z,2.00
2023-05-01T09:42:22.088Z,2.00
2023-05-01T09:43:26.812Z,2.00
2023-05-01T09:44:29.874Z,2.00
2023-05-01T09:45:32.986Z,2.00
2023-05-01T09:46:36.130Z,3.00
2023-05-01T09:47:39.168Z,3.14
2023-05-01T09:48:42.246Z,2.86
2023-05-01T09:49:45.288Z,4.00
2023-05-01T09:50:48.471Z,3.14
2023-05-01T09:51:51.510Z,1.57
2023-05-01T09:52:54.518Z,2.71
2023-05-01T09:53:58.034Z,2.33
2023-05-01T09:55:01.281Z,1.43
2023-05-01T09:56:04.775Z,1.71
2023-05-01T09:57:08.260Z,1.75
2023-05-01T09:58:11.684Z,2.00
2023-05-01T09:59:14.928Z,1.57
2023-05-01T10:00:18.383Z,2.00
2023-05-01T10:01:21.847Z,1.57
2023-05-01T10:02:31.543Z,1.00
2023-05-01T10:03:35.441Z,1.12
2023-05-01T10:04:39.132Z,1.57
2023-05-01T10:05:42.728Z,1.00
2023-05-01T10:06:46.097Z,1.00
2023-05-01T10:07:49.813Z,1.00
2023-05-01T10:08:53.517Z,1.50
2023-05-01T10:09:58.530Z,2.00
2023-05-01T10:11:01.721Z,2.00
2023-05-01T10:12:05.316Z,1.50
2023-05-01T10:13:08.675Z,1.00
2023-05-01T10:14:12.177Z,1.00
2023-05-01T10:15:24.864Z,1.00
2023-05-01T10:16:20.266Z,1.00
2023-05-01T10:17:23.876Z,1.00
2023-05-01T10:18:27.486Z,1.00
2023-05-01T10:19:30.947Z,0.62
2023-05-01T10:20:34.230Z,0.57
2023-05-01T10:21:37.487Z,0.43
2023-05-01T10:22:41.111Z,1.00
2023-05-01T10:23:44.732Z,1.00
2023-05-01T10:24:48.427Z,0.57
2023-05-01T10:25:52.095Z,0.86
2023-05-01T10:26:55.884Z,1.57
2023-05-01T10:27:59.382Z,1.00
2023-05-01T10:29:02.976Z,1.00
2023-05-01T10:30:06.708Z,1.00
2023-05-01T10:31:10.199Z,1.43
2023-05-01T10:32:13.945Z,1.00
2023-05-01T10:33:17.763Z,1.50
2023-05-01T10:34:21.468Z,1.57
2023-05-01T10:35:33.356Z,1.00
2023-05-01T10:36:36.599Z,1.00
2023-05-01T10:37:40.198Z,1.00
2023-05-01T10:38:43.795Z,0.62
2023-05-01T10:39:47.404Z,1.00
2023-05-01T10:40:51.076Z,0.00
2023-05-01T10:41:58.393Z,0.50
2023-05-01T10:43:01.953Z,0.50
2023-05-01T10:44:05.428Z,0.13
2023-05-01T10:45:08.632Z,0.43
2023-05-01T10:46:11.908Z,1.43
2023-05-01T10:47:15.193Z,1.14
2023-05-01T10:48:18.331Z,0.57
2023-05-01T10:49:21.612Z,2.00
2023-05-01T10:50:25.033Z,1.57
2023-05-01T10:51:28.529Z,1.00
2023-05-01T10:52:32.433Z,1.29
2023-05-01T10:53:36.120Z,1.00
2023-05-01T10:54:39.550Z,1.00
2023-05-01T10:55:42.996Z,0.57
2023-05-01T10:56:46.792Z,0.43
2023-05-01T10:57:50.370Z,0.62
2023-05-01T10:58:53.863Z,0.00
2023-05-01T10:59:57.253Z,0.57
2023-05-01T11:01:01.151Z,2.00
2023-05-01T11:02:04.974Z,1.50
2023-05-01T11:03:08.478Z,1.00
2023-05-01T11:04:11.930Z,1.00
2023-05-01T11:05:16.416Z,1.00
2023-05-01T11:06:20.278Z,1.00
2023-05-01T11:07:23.838Z,1.00
2023-05-01T11:08:33.577Z,1.43
2023-05-01T11:09:36.753Z,1.50
2023-05-01T11:10:40.130Z,1.67
2023-05-01T11:11:43.557Z,0.86
2023-05-01T11:12:47.109Z,1.57
2023-05-01T11:13:50.454Z,1.00
2023-05-01T11:14:54.338Z,0.57
2023-05-01T11:15:58.033Z,0.50
2023-05-01T11:17:01.473Z,1.00
2023-05-01T11:18:05.088Z,1.00
2023-05-01T11:19:08.696Z,1.00
2023-05-01T11:20:12.145Z,1.00
2023-05-01T11:21:15.417Z,1.00
2023-05-01T11:22:19.003Z,1.86
2023-05-01T11:23:22.628Z,1.71
2023-05-01T11:24:27.913Z,1.12
2023-05-01T11:25:31.435Z,1.00
2023-05-01T11:26:34.863Z,0.57
2023-05-01T11:27:38.414Z,0.43
2023-05-01T11:28:42.108Z,1.00
2023-05-01T11:29:45.812Z,1.37
2023-05-01T11:30:49.314Z,1.00
2023-05-01T11:31:52.851Z,0.57
2023-05-01T11:32:56.131Z,0.50
2023-05-01T11:33:59.758Z,1.00
2023-05-01T11:35:03.368Z,0.57
2023-05-01T11:36:07.191Z,0.43
2023-05-01T11:37:10.829Z,1.50
2023-05-01T11:38:14.327Z,1.14
2023-05-01T11:39:17.712Z,0.43
2023-05-01T11:40:21.071Z,1.00
2023-05-01T11:41:24.481Z,0.00
2023-05-01T11:42:27.905Z,0.33
2023-05-01T11:43:31.291Z,1.00
2023-05-01T11:44:34.440Z,1.43
2023-05-01T11:45:38.039Z,1.67
2023-05-01T11:46:41.196Z,0.43
2023-05-01T11:47:44.469Z,1.00
2023-05-01T11:48:47.685Z,1.33
2023-05-01T11:49:50.869Z,1.67
2023-05-01T11:50:54.046Z,1.00
2023-05-01T11:51:57.331Z,1.00
2023-05-01T11:53:00.516Z,0.57
2023-05-01T11:54:03.797Z,0.00
2023-05-01T11:55:07.081Z,0.00
2023-05-01T11:56:16.341Z,0.43
2023-05-01T11:57:14.897Z,1.00
2023-05-01T11:58:18.679Z,1.00
2023-05-01T11:59:22.264Z,1.00
2023-05-01T12:00:25.766Z,0.71
2023-05-01T12:01:29.105Z,1.00
2023-05-01T12:02:33.102Z,1.43
2023-05-01T12:03:36.718Z,2.00
2023-05-01T12:04:40.253Z,2.00
2023-05-01T12:05:43.573Z,1.57
2023-05-01T12:06:47.007Z,0.71
2023-05-01T12:07:50.489Z,1.00
2023-05-01T12:08:54.075Z,1.75
2023-05-01T12:09:57.575Z,1.14
2023-05-01T12:11:00.862Z,0.43
2023-05-01T12:12:04.450Z,1.29
2023-05-01T12:13:07.623Z,2.00
2023-05-01T12:14:10.917Z,1.57
2023-05-01T12:15:14.318Z,1.00
2023-05-01T12:16:17.629Z,1.00
2023-05-01T12:17:20.887Z,1.00
2023-05-01T12:18:24.326Z,1.00
2023-05-01T12:19:27.541Z,1.43
2023-05-01T12:20:30.930Z,1.29
2023-05-01T12:21:33.974Z,1.43
2023-05-01T12:22:37.201Z,1.57
2023-05-01T12:23:40.375Z,1.50
2023-05-01T12:24:43.660Z,1.33
2023-05-01T12:25:47.005Z,1.57
2023-05-01T12:26:50.215Z,0.57
2023-05-01T12:27:53.716Z,1.00
2023-05-01T12:28:57.024Z,1.00
2023-05-01T12:30:00.375Z,1.43
2023-05-01T12:31:05.219Z,1.29
2023-05-01T12:32:11.407Z,1.00
2023-05-01T12:33:14.252Z,1.50
2023-05-01T12:34:17.609Z,2.00
2023-05-01T12:35:20.890Z,2.14
2023-05-01T12:36:24.276Z,1.00
2023-05-01T12:37:27.769Z,0.71
2023-05-01T12:38:31.055Z,1.00
2023-05-01T12:39:34.629Z,1.00
2023-05-01T12:40:37.925Z,1.00
2023-05-01T12:41:41.311Z,0.57
2023-05-01T12:42:44.615Z,0.43
2023-05-01T12:43:48.189Z,0.57
2023-05-01T12:44:51.506Z,0.00
2023-05-01T12:45:54.739Z,1.00
2023-05-01T12:46:58.087Z,0.43
2023-05-01T12:48:01.504Z,0.43
2023-05-01T12:49:04.745Z,1.00
2023-05-01T12:50:07.976Z,1.00
2023-05-01T12:51:11.385Z,1.00
2023-05-01T12:52:14.975Z,0.57
2023-05-01T12:53:18.254Z,1.00
2023-05-01T12:54:21.751Z,1.00
2023-05-01T12:55:25.340Z,1.00
2023-05-01T12:56:28.827Z,1.00
2023-05-01T12:57:32.315Z,0.57
2023-05-01T12:58:35.805Z,0.43
2023-05-01T12:59:39.401Z,1.00
2023-05-01T13:00:42.887Z,1.00
2023-05-01T13:01:46.430Z,0.57
2023-05-01T13:02:50.122Z,1.00
2023-05-01T13:03:54.501Z,1.00
2023-05-01T13:04:58.184Z,0.00
2023-05-01T13:06:01.926Z,0.00
2023-05-01T13:07:05.565Z,0.43
2023-05-01T13:08:08.956Z,1.00
2023-05-01T13:09:12.151Z,0.57
2023-05-01T13:10:15.624Z,0.86
2023-05-01T13:11:19.312Z,1.00
2023-05-01T13:12:22.707Z,1.00
2023-05-01T13:13:26.100Z,0.57
2023-05-01T13:14:30.691Z,0.00
2023-05-01T13:15:33.891Z,0.50
2023-05-01T13:16:37.372Z,1.00
2023-05-01T13:17:40.917Z,1.43
2023-05-01T13:18:44.477Z,1.57
2023-05-01T13:19:51.015Z,0.57
2023-05-01T13:20:54.505Z,1.00
2023-05-01T13:21:58.211Z,0.57
2023-05-01T13:23:01.625Z,0.50
2023-05-01T13:24:04.761Z,1.00
2023-05-01T13:25:08.254Z,0.67
2023-05-01T13:26:11.852Z,0.86
2023-05-01T13:27:15.642Z,2.00
2023-05-01T13:28:19.258Z,1.57
2023-05-01T13:29:22.598Z,0.57
2023-05-01T13:30:26.530Z,0.43
2023-05-01T13:31:30.002Z,1.00
2023-05-01T13:32:33.511Z,0.50
2023-05-01T13:33:37.088Z,0.29
2023-05-01T13:34:40.592Z,0.86
2023-05-01T13:35:43.977Z,1.00
2023-05-01T13:36:47.349Z,0.57
2023-05-01T13:37:50.745Z,0.00
2023-05-01T13:38:54.131Z,0.43
2023-05-01T13:39:57.705Z,0.57
2023-05-01T13:41:01.297Z,0.00
2023-05-01T13:42:04.695Z,0.00
2023-05-01T13:43:08.297Z,0.43
2023-05-01T13:44:11.670Z,1.00
2023-05-01T13:45:15.564Z,0.57
2023-05-01T13:46:19.214Z,0.50
2023-05-01T13:47:22.873Z,1.00
2023-05-01T13:48:26.170Z,0.50
2023-05-01T13:49:30.354Z,0.67
2023-05-01T13:50:33.953Z,1.00
2023-05-01T13:51:37.522Z,0.43
2023-05-01T13:52:41.120Z,1.57
2023-05-01T13:53:44.503Z,1.00
2023-05-01T13:54:47.904Z,0.57
2023-05-01T13:55:51.159Z,0.33
2023-05-01T13:56:55.692Z,0.67
2023-05-01T13:57:59.193Z,0.00
2023-05-01T13:59:02.873Z,0.71
2023-05-01T14:00:06.334Z,1.00
2023-05-01T14:01:10.609Z,0.88
2023-05-01T14:02:14.212Z,0.00
2023-05-01T14:03:17.943Z,0.00
2023-05-01T14:04:21.444Z,0.00
2023-05-01T14:05:24.836Z,0.43
2023-05-01T14:06:28.284Z,1.00
2023-05-01T14:07:31.807Z,0.86
2023-05-01T14:08:35.397Z,0.57
2023-05-01T14:09:38.664Z,0.00
2023-05-01T14:10:42.169Z,0.00
2023-05-01T14:11:45.666Z,0.00
2023-05-01T14:12:49.047Z,0.00